Time;durP1;ratioP1;P1;durP2;ratioP2;P2;SDS_P1;SDS_P2;PMS_P1;PMS_P2;Temp;Humidity;BMP_temperature;BMP_pressure;BME280_temperature;BME280_humidity;BME280_pressure;Samples;Min_cycle;Max_cycle;Signal;HPM_P1;HPM_P2
2021/09/27 00:18:57;;;;;;;10.15;6.00;;;;;;;;;;4173981;34;20145;-66
2021/09/27 00:21:26;;;;;;;15.60;5.87;;;;;;;;;;4172257;34;20118;-66
2021/09/27 00:23:52;;;;;;;14.20;5.75;;;;;;;;;;4170960;34;20536;-64
2021/09/27 00:26:18;;;;;;;11.07;5.55;;;;;;;;;;4164599;34;20536;-64
2021/09/27 00:28:44;;;;;;;12.98;6.28;;;;;;;;;;4174026;34;20105;-64
2021/09/27 00:31:10;;;;;;;17.27;5.80;;;;;;;;;;4178376;34;20483;-65
2021/09/27 00:33:36;;;;;;;11.32;5.95;;;;;;;;;;4176821;34;20201;-69
2021/09/27 00:36:02;;;;;;;19.55;5.97;;;;;;;;;;4175682;34;20106;-69
2021/09/27 00:38:28;;;;;;;16.30;5.93;;;;;;;;;;4164389;34;20199;-66
2021/09/27 00:40:59;;;;;;;12.98;6.10;;;;;;;;;;4163481;34;20084;-66
2021/09/27 00:43:25;;;;;;;13.50;5.90;;;;;;;;;;4164511;34;20141;-66
2021/09/27 00:45:58;;;;;;;18.87;5.95;;;;;;;;;;4163331;34;20548;-63
2021/09/27 00:48:24;;;;;;;20.58;6.80;;;;;;;;;;4164509;34;20130;-66
2021/09/27 00:50:53;;;;;;;13.80;6.03;;;;;;;;;;4164500;34;20126;-64
2021/09/27 00:53:24;;;;;;;17.87;5.50;;;;;;;;;;4155517;34;20209;-68
2021/09/27 00:55:51;;;;;;;12.40;4.90;;;;;;;;;;4166034;34;20134;-66
2021/09/27 00:58:17;;;;;;;16.08;5.15;;;;;;;;;;4176800;34;20118;-64
2021/09/27 01:00:43;;;;;;;20.17;6.18;;;;;;;;;;4165357;34;20118;-65
2021/09/27 01:03:09;;;;;;;19.08;5.32;;;;;;;;;;4176659;34;20198;-68
2021/09/27 01:05:36;;;;;;;19.27;5.22;;;;;;;;;;4176610;34;20121;-64
2021/09/27 01:08:28;;;;;;;19.42;5.18;;;;;;;;;;4165447;34;20091;-65
2021/09/27 01:11:06;;;;;;;18.87;6.15;;;;;;;;;;4176553;34;20107;-65
2021/09/27 01:14:14;;;;;;;16.60;5.57;;;;;;;;;;4178122;34;20109;-65
2021/09/27 01:16:57;;;;;;;14.00;5.90;;;;;;;;;;4167706;34;20118;-65
2021/09/27 01:19:45;;;;;;;12.98;6.25;;;;;;;;;;4177969;34;20114;-64
2021/09/27 01:22:45;;;;;;;17.37;5.10;;;;;;;;;;4178007;34;20457;-65
2021/09/27 01:26:02;;;;;;;19.02;5.45;;;;;;;;;;4177714;34;20210;-65
2021/09/27 01:29:02;;;;;;;16.92;6.40;;;;;;;;;;4159624;34;20107;-69
2021/09/27 01:32:05;;;;;;;20.17;6.43;;;;;;;;;;4176489;34;20170;-68
2021/09/27 01:34:36;;;;;;;16.17;5.60;;;;;;;;;;4177932;34;20225;-64
2021/09/27 01:37:13;;;;;;;17.75;6.20;;;;;;;;;;4176467;34;20295;-65
2021/09/27 01:40:01;;;;;;;14.70;5.85;;;;;;;;;;4176358;34;20129;-68
2021/09/27 01:42:30;;;;;;;20.95;6.03;;;;;;;;;;4176457;34;20129;-68
2021/09/27 01:45:34;;;;;;;15.77;6.22;;;;;;;;;;4177664;34;20435;-68
2021/09/27 01:48:33;;;;;;;15.20;6.15;;;;;;;;;;4148287;34;20126;-68
2021/09/27 01:51:03;;;;;;;14.00;5.28;;;;;;;;;;4177301;34;20105;-68
2021/09/27 01:53:43;;;;;;;23.08;7.65;;;;;;;;;;4173710;34;20134;-68
2021/09/27 01:56:10;;;;;;;26.27;6.28;;;;;;;;;;4152250;34;20436;-66
2021/09/27 01:58:40;;;;;;;19.20;5.97;;;;;;;;;;4151410;34;20194;-65
2021/09/27 02:01:10;;;;;;;24.12;5.97;;;;;;;;;;4162473;34;20118;-65
2021/09/27 02:03:40;;;;;;;23.48;5.47;;;;;;;;;;4151622;34;20103;-64
2021/09/27 02:06:16;;;;;;;12.40;5.20;;;;;;;;;;4162549;34;20102;-64
2021/09/27 02:08:59;;;;;;;19.05;5.72;;;;;;;;;;4162474;34;20131;-64
2021/09/27 02:11:30;;;;;;;24.83;5.40;;;;;;;;;;4151203;34;20142;-66
2021/09/27 02:14:15;;;;;;;24.73;5.62;;;;;;;;;;4151454;34;20946;-65
2021/09/27 02:16:58;;;;;;;24.87;6.15;;;;;;;;;;4163438;34;20130;-66
2021/09/27 02:19:36;;;;;;;25.92;7.00;;;;;;;;;;4152239;34;20118;-66
2021/09/27 02:22:09;;;;;;;18.70;5.90;;;;;;;;;;4173022;34;20113;-65
2021/09/27 02:24:41;;;;;;;20.25;5.80;;;;;;;;;;4165284;34;20555;-68
2021/09/27 02:27:07;;;;;;;33.00;7.12;;;;;;;;;;4164892;34;20621;-65
2021/09/27 02:29:33;;;;;;;25.55;5.85;;;;;;;;;;4175965;34;20114;-64
2021/09/27 02:32:08;;;;;;;24.42;6.25;;;;;;;;;;4164767;34;20110;-68
2021/09/27 02:34:36;;;;;;;25.30;5.43;;;;;;;;;;4177128;34;20126;-67
2021/09/27 02:37:26;;;;;;;27.35;6.47;;;;;;;;;;4175829;34;20595;-63
2021/09/27 02:40:02;;;;;;;27.27;7.22;;;;;;;;;;4175984;34;20177;-63
2021/09/27 02:42:36;;;;;;;28.40;7.25;;;;;;;;;;4175711;34;20566;-63
2021/09/27 02:45:03;;;;;;;24.00;6.82;;;;;;;;;;4164504;34;20201;-63
2021/09/27 02:47:41;;;;;;;24.10;9.23;;;;;;;;;;4177029;34;20287;-63
2021/09/27 02:50:09;;;;;;;28.83;7.07;;;;;;;;;;4175595;34;20510;-63
2021/09/27 02:52:35;;;;;;;31.37;7.72;;;;;;;;;;4175302;34;20231;-65
2021/09/27 02:55:06;;;;;;;27.08;7.75;;;;;;;;;;4162193;34;20585;-61
2021/09/27 02:57:45;;;;;;;26.33;7.05;;;;;;;;;;4161787;34;20126;-65
2021/09/27 03:00:26;;;;;;;31.45;8.18;;;;;;;;;;4161861;34;20218;-60
2021/09/27 03:03:13;;;;;;;26.08;7.43;;;;;;;;;;4151536;34;20131;-62
2021/09/27 03:06:02;;;;;;;35.63;9.05;;;;;;;;;;4161607;34;20102;-62
2021/09/27 03:08:52;;;;;;;24.10;8.00;;;;;;;;;;4164060;34;20130;-68
2021/09/27 03:11:30;;;;;;;27.62;8.13;;;;;;;;;;4154390;34;20130;-68
2021/09/27 03:14:12;;;;;;;23.77;6.32;;;;;;;;;;4160907;34;20527;-61
2021/09/27 03:16:43;;;;;;;28.35;7.18;;;;;;;;;;4159331;34;20144;-67
2021/09/27 03:19:32;;;;;;;40.33;8.57;;;;;;;;;;4159476;34;20127;-61
2021/09/27 03:22:33;;;;;;;40.40;9.18;;;;;;;;;;4155674;34;20114;-68
2021/09/27 03:25:33;;;;;;;25.98;7.57;;;;;;;;;;4165617;34;20118;-68
2021/09/27 03:28:12;;;;;;;28.80;7.75;;;;;;;;;;4174573;34;20222;-68
2021/09/27 03:31:15;;;;;;;31.20;6.30;;;;;;;;;;4184892;34;20111;-63
2021/09/27 03:34:16;;;;;;;26.15;7.10;;;;;;;;;;4174504;34;20126;-63
2021/09/27 03:37:07;;;;;;;31.50;7.90;;;;;;;;;;4165000;34;20122;-64
2021/09/27 03:39:51;;;;;;;20.05;6.65;;;;;;;;;;4183563;34;20266;-70
2021/09/27 03:42:33;;;;;;;25.73;7.65;;;;;;;;;;4174457;34;20537;-69
2021/09/27 03:45:45;;;;;;;27.92;7.47;;;;;;;;;;4186246;34;20119;-64
2021/09/27 03:48:20;;;;;;;27.20;8.35;;;;;;;;;;4175125;34;20122;-72
2021/09/27 03:50:48;;;;;;;35.38;8.45;;;;;;;;;;4173737;34;20474;-66
2021/09/27 03:53:26;;;;;;;27.62;7.40;;;;;;;;;;4186443;34;20523;-72
2021/09/27 03:59:20;;;;;;;21.15;6.43;;;;;;;;;;4157338;28;20108;-70
2021/09/27 04:02:08;;;;;;;20.90;5.95;;;;;;;;;;4118614;34;20147;-71
2021/09/27 04:05:07;;;;;;;25.00;6.60;;;;;;;;;;4119799;34;20128;-71
2021/09/27 04:07:57;;;;;;;23.02;6.60;;;;;;;;;;4119815;34;20516;-72
2021/09/27 04:10:35;;;;;;;28.33;7.00;;;;;;;;;;4120503;34;20108;-72
2021/09/27 04:13:03;;;;;;;22.27;5.82;;;;;;;;;;4121402;34;20167;-74
2021/09/27 04:15:44;;;;;;;39.03;8.27;;;;;;;;;;4122111;34;20120;-74
2021/09/27 04:18:10;;;;;;;24.48;6.47;;;;;;;;;;4108960;34;20121;-74
2021/09/27 04:20:38;;;;;;;30.02;6.72;;;;;;;;;;4108773;34;20724;-74
2021/09/27 04:23:37;;;;;;;20.48;5.68;;;;;;;;;;4108953;34;20101;-75
2021/09/27 04:26:40;;;;;;;27.37;7.35;;;;;;;;;;4108927;34;20120;-67
2021/09/27 04:29:13;;;;;;;17.52;5.87;;;;;;;;;;4116652;34;20139;-74
2021/09/27 04:32:08;;;;;;;26.83;6.37;;;;;;;;;;4137658;34;20658;-68
2021/09/27 04:34:52;;;;;;;23.80;6.75;;;;;;;;;;4141956;34;20205;-67
2021/09/27 04:37:18;;;;;;;30.42;6.12;;;;;;;;;;4151303;34;20139;-74
2021/09/27 04:39:45;;;;;;;24.05;6.40;;;;;;;;;;4138683;34;20138;-75
2021/09/27 04:42:45;;;;;;;28.67;6.55;;;;;;;;;;4139135;34;20099;-75
2021/09/27 04:45:20;;;;;;;17.58;6.45;;;;;;;;;;4151849;34;20107;-75
2021/09/27 04:48:02;;;;;;;21.03;5.70;;;;;;;;;;4151321;34;20107;-68
2021/09/27 04:50:37;;;;;;;21.70;6.85;;;;;;;;;;4138737;34;20530;-75
2021/09/27 04:53:29;;;;;;;22.27;6.10;;;;;;;;;;4152334;34;20122;-74
2021/09/27 04:56:11;;;;;;;19.87;5.87;;;;;;;;;;4151572;34;20218;-74
2021/09/27 04:59:05;;;;;;;18.42;6.55;;;;;;;;;;4149526;34;20112;-68
2021/09/27 05:02:02;;;;;;;20.05;5.90;;;;;;;;;;4149435;34;20211;-67
2021/09/27 05:04:31;;;;;;;29.90;6.78;;;;;;;;;;4149493;34;20122;-69
2021/09/27 05:07:04;;;;;;;21.55;5.50;;;;;;;;;;4150840;34;20111;-68
2021/09/27 05:09:49;;;;;;;15.13;5.30;;;;;;;;;;4150691;34;20129;-69
2021/09/27 05:12:25;;;;;;;24.98;7.18;;;;;;;;;;4150726;34;20122;-69
2021/09/27 05:15:26;;;;;;;20.58;6.57;;;;;;;;;;4149450;34;20618;-69
2021/09/27 05:18:04;;;;;;;21.27;5.93;;;;;;;;;;4135290;34;20223;-68
2021/09/27 05:20:44;;;;;;;24.05;5.72;;;;;;;;;;4150601;34;20147;-68
2021/09/27 05:23:17;;;;;;;21.75;5.45;;;;;;;;;;4149725;34;20215;-68
2021/09/27 05:25:53;;;;;;;16.33;5.70;;;;;;;;;;4149311;34;20122;-68
2021/09/27 05:28:38;;;;;;;27.35;5.85;;;;;;;;;;4138503;34;20135;-68
2021/09/27 05:31:10;;;;;;;22.40;5.43;;;;;;;;;;4150966;34;20114;-70
2021/09/27 05:34:04;;;;;;;16.45;6.50;;;;;;;;;;4149038;34;20202;-66
2021/09/27 05:36:56;;;;;;;18.00;6.37;;;;;;;;;;4135956;34;20119;-68
2021/09/27 05:39:43;;;;;;;20.73;5.35;;;;;;;;;;4136130;34;20436;-66
2021/09/27 05:42:20;;;;;;;22.83;7.45;;;;;;;;;;4137330;34;20107;-66
2021/09/27 05:45:14;;;;;;;16.30;6.20;;;;;;;;;;4147158;34;20127;-67
2021/09/27 05:47:55;;;;;;;18.60;5.82;;;;;;;;;;4136982;34;20122;-69
2021/09/27 05:50:33;;;;;;;15.63;5.62;;;;;;;;;;4137172;34;20596;-67
2021/09/27 05:53:02;;;;;;;20.92;7.05;;;;;;;;;;4136852;34;20111;-67
2021/09/27 05:55:35;;;;;;;18.40;6.37;;;;;;;;;;4136811;34;20100;-67
2021/09/27 05:58:29;;;;;;;13.82;5.72;;;;;;;;;;4135645;34;20212;-67
2021/09/27 06:00:59;;;;;;;19.67;6.35;;;;;;;;;;4140000;34;20110;-67
2021/09/27 06:03:49;;;;;;;21.05;5.87;;;;;;;;;;4148972;34;20518;-67
2021/09/27 06:06:22;;;;;;;14.95;5.72;;;;;;;;;;4139163;34;20118;-68
2021/09/27 06:09:26;;;;;;;12.63;5.35;;;;;;;;;;4150203;34;20119;-69
2021/09/27 06:12:22;;;;;;;14.52;5.43;;;;;;;;;;4150734;34;20617;-67
2021/09/27 06:14:48;;;;;;;;;;;;;;;;;;4150634;34;20134;-69
2021/09/27 06:17:37;;;;;;;21.17;6.78;;;;;;;;;;4148911;34;19978;-67
2021/09/27 06:20:10;;;;;;;16.95;5.10;;;;;;;;;;4146241;34;20117;-66
2021/09/27 06:23:00;;;;;;;11.43;4.97;;;;;;;;;;4149086;34;20126;-69
2021/09/27 06:25:28;;;;;;;14.27;5.82;;;;;;;;;;4150073;34;20127;-69
2021/09/27 06:28:23;;;;;;;16.25;5.75;;;;;;;;;;4148648;34;20551;-68
2021/09/27 06:30:55;;;;;;;14.55;5.57;;;;;;;;;;4148866;34;20137;-67
2021/09/27 06:33:32;;;;;;;16.20;5.62;;;;;;;;;;4149027;34;20123;-68
2021/09/27 06:35:58;;;;;;;15.90;5.53;;;;;;;;;;4137381;34;20122;-69
2021/09/27 06:38:32;;;;;;;18.48;6.25;;;;;;;;;;4137898;34;20091;-67
2021/09/27 06:40:59;;;;;;;13.30;6.07;;;;;;;;;;4137625;34;20103;-68
2021/09/27 06:43:25;;;;;;;14.07;6.05;;;;;;;;;;4137892;34;20219;-68
2021/09/27 06:45:51;;;;;;;17.08;5.57;;;;;;;;;;4148661;34;20534;-69
2021/09/27 06:48:19;;;;;;;13.95;5.70;;;;;;;;;;4148346;34;20534;-69
2021/09/27 06:50:45;;;;;;;15.70;6.10;;;;;;;;;;4148489;34;20628;-68
2021/09/27 06:53:11;;;;;;;20.90;5.70;;;;;;;;;;4148489;34;20178;-66
2021/09/27 06:55:37;;;;;;;16.37;5.78;;;;;;;;;;4149847;34;20102;-67
2021/09/27 06:58:02;;;;;;;15.80;5.30;;;;;;;;;;4149776;34;20134;-69
2021/09/27 07:00:28;;;;;;;13.65;5.25;;;;;;;;;;4148528;34;20515;-69
2021/09/27 07:02:54;;;;;;;16.00;5.60;;;;;;;;;;4149750;34;20138;-67
2021/09/27 07:05:20;;;;;;;17.02;4.85;;;;;;;;;;4148217;34;20146;-71
2021/09/27 07:07:46;;;;;;;12.02;4.65;;;;;;;;;;4148394;34;20122;-66
2021/09/27 07:10:15;;;;;;;13.00;4.95;;;;;;;;;;4149708;34;20119;-66
2021/09/27 07:12:41;;;;;;;12.85;4.65;;;;;;;;;;4159524;34;20117;-67
2021/09/27 07:15:08;;;;;;;11.77;4.62;;;;;;;;;;4148180;34;20164;-67
2021/09/27 07:17:36;;;;;;;11.23;4.55;;;;;;;;;;4149727;34;20115;-65
2021/09/27 07:20:13;;;;;;;18.15;4.97;;;;;;;;;;4149640;34;20107;-69
2021/09/27 07:22:39;;;;;;;9.93;4.78;;;;;;;;;;4148002;34;20107;-67
2021/09/27 07:25:08;;;;;;;16.83;4.68;;;;;;;;;;4149326;34;20223;-67
2021/09/27 07:27:34;;;;;;;6.43;4.25;;;;;;;;;;4148059;34;20356;-67
2021/09/27 07:30:00;;;;;;;9.88;4.25;;;;;;;;;;4148001;34;20211;-68
2021/09/27 07:32:26;;;;;;;16.60;5.40;;;;;;;;;;4137419;34;20142;-67
2021/09/27 07:34:52;;;;;;;7.60;3.72;;;;;;;;;;4150011;34;20191;-67
2021/09/27 07:37:18;;;;;;;9.60;3.72;;;;;;;;;;4149644;34;20134;-67
2021/09/27 07:39:44;;;;;;;10.48;4.47;;;;;;;;;;4149404;34;20611;-69
2021/09/27 07:42:10;;;;;;;9.85;4.10;;;;;;;;;;4136856;34;20559;-69
2021/09/27 07:44:36;;;;;;;12.88;4.28;;;;;;;;;;4148057;34;20206;-68
2021/09/27 07:47:03;;;;;;;7.65;4.03;;;;;;;;;;4150204;34;20122;-67
2021/09/27 07:49:29;;;;;;;16.25;4.10;;;;;;;;;;4151378;34;20127;-68
2021/09/27 07:51:57;;;;;;;13.90;4.50;;;;;;;;;;4151475;34;20127;-67
2021/09/27 07:54:26;;;;;;;11.15;4.22;;;;;;;;;;4151426;34;20187;-68
2021/09/27 07:56:52;;;;;;;15.75;4.50;;;;;;;;;;4149812;34;20568;-67
2021/09/27 07:59:18;;;;;;;10.88;3.90;;;;;;;;;;4151349;34;20107;-66
2021/09/27 08:01:44;;;;;;;20.85;5.35;;;;;;;;;;4151210;34;20561;-68
2021/09/27 08:04:10;;;;;;;15.27;5.45;;;;;;;;;;4151344;34;20127;-69
2021/09/27 08:06:36;;;;;;;13.27;4.22;;;;;;;;;;4151445;34;20109;-70
2021/09/27 08:09:03;;;;;;;16.10;4.10;;;;;;;;;;4151260;34;20107;-69
2021/09/27 08:11:29;;;;;;;9.45;3.42;;;;;;;;;;4138757;34;20236;-66
2021/09/27 08:13:55;;;;;;;11.50;4.10;;;;;;;;;;4151141;34;20126;-66
2021/09/27 08:16:20;;;;;;;10.63;3.85;;;;;;;;;;4151075;34;20247;-67
2021/09/27 08:18:46;;;;;;;17.75;3.97;;;;;;;;;;4151544;34;20495;-67
2021/09/27 08:21:15;;;;;;;21.37;4.28;;;;;;;;;;4161246;34;20154;-67
2021/09/27 08:23:40;;;;;;;11.18;4.00;;;;;;;;;;4151340;34;20134;-68
2021/09/27 08:26:06;;;;;;;13.73;3.67;;;;;;;;;;4151099;34;20169;-68
2021/09/27 08:28:32;;;;;;;7.15;3.60;;;;;;;;;;4151082;34;20142;-68
2021/09/27 08:31:00;;;;;;;8.00;3.62;;;;;;;;;;4151478;34;20111;-67
2021/09/27 08:33:27;;;;;;;11.57;4.25;;;;;;;;;;4151614;34;20127;-69
2021/09/27 08:35:53;;;;;;;15.27;3.62;;;;;;;;;;4149675;34;20199;-66
2021/09/27 08:38:21;;;;;;;14.87;4.30;;;;;;;;;;4151476;34;20200;-68
2021/09/27 08:40:59;;;;;;;10.85;3.87;;;;;;;;;;4149680;34;20119;-68
2021/09/27 08:43:43;;;;;;;18.15;3.97;;;;;;;;;;4160904;34;20126;-67
2021/09/27 08:46:31;;;;;;;16.25;4.35;;;;;;;;;;4151178;34;20506;-68
2021/09/27 08:49:05;;;;;;;15.30;4.12;;;;;;;;;;4150960;34;20123;-68
2021/09/27 08:51:32;;;;;;;11.50;3.78;;;;;;;;;;4149498;34;20609;-65
2021/09/27 08:53:58;;;;;;;23.25;5.28;;;;;;;;;;4150801;34;20107;-69
2021/09/27 08:56:53;;;;;;;17.92;4.70;;;;;;;;;;4150872;34;20210;-62
2021/09/27 08:59:49;;;;;;;17.00;4.05;;;;;;;;;;4140137;34;20095;-63
2021/09/27 09:02:40;;;;;;;14.68;4.25;;;;;;;;;;4150782;34;20544;-63
2021/09/27 09:05:26;;;;;;;12.07;4.05;;;;;;;;;;4151007;34;20123;-63
2021/09/27 09:08:11;;;;;;;9.52;4.18;;;;;;;;;;4149315;34;20118;-63
2021/09/27 09:10:45;;;;;;;19.67;4.62;;;;;;;;;;4150798;34;20095;-70
2021/09/27 09:13:17;;;;;;;18.20;3.42;;;;;;;;;;4150913;34;20119;-63
2021/09/27 09:15:45;;;;;;;24.63;5.05;;;;;;;;;;4149458;34;20095;-72
2021/09/27 09:18:26;;;;;;;14.73;4.55;;;;;;;;;;4138372;34;20121;-63
2021/09/27 09:21:12;;;;;;;10.10;3.95;;;;;;;;;;4149625;34;20523;-64
2021/09/27 09:23:45;;;;;;;13.70;4.97;;;;;;;;;;4149488;34;20103;-71
2021/09/27 09:26:13;;;;;;;9.80;4.10;;;;;;;;;;4138482;34;20503;-70
2021/09/27 09:28:41;;;;;;;5.07;3.65;;;;;;;;;;4149522;34;20142;-70
2021/09/27 09:31:15;;;;;;;10.50;3.92;;;;;;;;;;4150573;34;20551;-68
2021/09/27 09:33:45;;;;;;;11.95;3.97;;;;;;;;;;4148996;34;20113;-63
2021/09/27 09:36:25;;;;;;;6.60;4.30;;;;;;;;;;4148990;34;20119;-64
2021/09/27 09:38:51;;;;;;;9.50;3.80;;;;;;;;;;4149108;34;20625;-68
2021/09/27 09:41:17;;;;;;;8.75;4.45;;;;;;;;;;4137872;34;20114;-68
2021/09/27 09:43:46;;;;;;;2.03;1.65;;;;;;;;;;4150864;34;20527;-62
2021/09/27 09:46:15;;;;;;;8.02;3.72;;;;;;;;;;4138097;34;20427;-68
2021/09/27 09:49:14;;;;;;;11.65;4.10;;;;;;;;;;4150789;34;20500;-63
2021/09/27 09:51:45;;;;;;;7.68;3.75;;;;;;;;;;4134397;34;20110;-68
2021/09/27 09:54:13;;;;;;;9.25;3.65;;;;;;;;;;4150560;34;20130;-70
2021/09/27 09:56:40;;;;;;;12.82;4.55;;;;;;;;;;4150355;34;20131;-63
2021/09/27 09:59:36;;;;;;;9.18;4.15;;;;;;;;;;4137921;34;20561;-63
2021/09/27 10:02:07;;;;;;;7.90;3.83;;;;;;;;;;4149060;34;20123;-70
2021/09/27 10:04:38;;;;;;;6.05;3.55;;;;;;;;;;4150951;34;20545;-70
2021/09/27 10:07:19;;;;;;;6.82;3.12;;;;;;;;;;4149011;34;20470;-69
2021/09/27 10:10:01;;;;;;;11.70;3.92;;;;;;;;;;4148154;34;20265;-69
2021/09/27 10:12:45;;;;;;;9.82;3.20;;;;;;;;;;4138472;34;20522;-66
2021/09/27 10:15:33;;;;;;;7.50;3.53;;;;;;;;;;4148819;34;20099;-67
2021/09/27 10:18:30;;;;;;;6.78;3.80;;;;;;;;;;4150065;34;20257;-64
2021/09/27 10:21:08;;;;;;;6.80;3.50;;;;;;;;;;4150109;34;20114;-64
2021/09/27 10:23:44;;;;;;;11.32;4.20;;;;;;;;;;4148995;34;20107;-65
2021/09/27 10:26:29;;;;;;;9.30;4.07;;;;;;;;;;4137829;34;20126;-65
2021/09/27 10:28:59;;;;;;;7.28;3.58;;;;;;;;;;4148634;34;20138;-65
2021/09/27 10:31:27;;;;;;;12.10;3.60;;;;;;;;;;4148611;34;20154;-65
2021/09/27 10:34:00;;;;;;;5.87;3.90;;;;;;;;;;4150229;34;20110;-65
2021/09/27 10:36:33;;;;;;;6.75;3.50;;;;;;;;;;4150101;34;20137;-65
2021/09/27 10:38:59;;;;;;;9.30;4.00;;;;;;;;;;4149871;34;20123;-66
2021/09/27 10:41:31;;;;;;;10.45;4.05;;;;;;;;;;4148384;34;20141;-65
2021/09/27 10:44:01;;;;;;;12.20;4.93;;;;;;;;;;4149947;34;20502;-65
2021/09/27 10:46:34;;;;;;;7.18;4.20;;;;;;;;;;4126284;34;20203;-66
2021/09/27 10:49:00;;;;;;;11.65;3.90;;;;;;;;;;4148774;34;20506;-65
2021/09/27 10:51:35;;;;;;;9.93;4.28;;;;;;;;;;4148326;34;20170;-66
2021/09/27 10:54:38;;;;;;;9.00;4.15;;;;;;;;;;4138106;34;20135;-65
2021/09/27 10:57:15;;;;;;;9.63;3.97;;;;;;;;;;4149624;34;20106;-65
2021/09/27 10:59:59;;;;;;;16.17;4.10;;;;;;;;;;4137943;34;20182;-67
2021/09/27 11:02:39;;;;;;;10.45;3.90;;;;;;;;;;4137626;34;20214;-67
2021/09/27 11:05:32;;;;;;;13.30;4.37;;;;;;;;;;4148325;34;20471;-67
2021/09/27 11:08:08;;;;;;;9.52;3.55;;;;;;;;;;4137338;34;20171;-66
2021/09/27 11:10:41;;;;;;;9.52;3.80;;;;;;;;;;4147443;34;20135;-69
2021/09/27 11:13:07;;;;;;;8.63;3.67;;;;;;;;;;4149425;34;20098;-67
2021/09/27 11:15:35;;;;;;;9.05;3.55;;;;;;;;;;4146045;34;20201;-67
2021/09/27 11:18:07;;;;;;;9.85;3.72;;;;;;;;;;4136734;34;20108;-66
2021/09/27 11:20:39;;;;;;;6.35;3.85;;;;;;;;;;4150020;34;20189;-66
2021/09/27 11:23:25;;;;;;;11.30;3.40;;;;;;;;;;4151641;34;20113;-63
2021/09/27 11:26:10;;;;;;;9.02;4.05;;;;;;;;;;4151473;34;20111;-63
2021/09/27 11:28:48;;;;;;;6.07;4.45;;;;;;;;;;4151506;34;20569;-63
2021/09/27 11:31:26;;;;;;;5.28;3.72;;;;;;;;;;4151342;34;20500;-62
2021/09/27 11:34:00;;;;;;;7.40;3.97;;;;;;;;;;4151558;34;20211;-63
2021/09/27 11:36:45;;;;;;;10.13;4.03;;;;;;;;;;4151349;34;20524;-62
2021/09/27 11:39:11;;;;;;;9.10;4.20;;;;;;;;;;4151494;34;20125;-69
2021/09/27 11:41:38;;;;;;;7.78;4.18;;;;;;;;;;4151473;34;20447;-68
2021/09/27 11:44:28;;;;;;;8.13;4.30;;;;;;;;;;4160994;34;20393;-70
2021/09/27 11:47:02;;;;;;;7.72;4.47;;;;;;;;;;4151324;34;20118;-71
2021/09/27 11:49:59;;;;;;;10.63;4.57;;;;;;;;;;4160808;34;20121;-70
2021/09/27 11:52:59;;;;;;;10.73;4.18;;;;;;;;;;4160643;34;20116;-70
2021/09/27 11:55:37;;;;;;;8.70;4.37;;;;;;;;;;4151159;34;20138;-68
2021/09/27 11:58:23;;;;;;;8.13;4.00;;;;;;;;;;4149738;34;20197;-61
2021/09/27 12:00:51;;;;;;;9.27;4.65;;;;;;;;;;4151440;34;20554;-62
2021/09/27 12:03:24;;;;;;;12.25;7.40;;;;;;;;;;4160951;34;20107;-62
2021/09/27 12:06:04;;;;;;;13.62;7.62;;;;;;;;;;4161186;34;20586;-62
2021/09/27 12:08:34;;;;;;;11.30;6.40;;;;;;;;;;4161295;34;20216;-62
2021/09/27 12:11:05;;;;;;;20.02;10.98;;;;;;;;;;4149950;34;20444;-61
2021/09/27 12:13:51;;;;;;;22.73;10.68;;;;;;;;;;4150108;34;20119;-61
2021/09/27 12:16:25;;;;;;;12.63;6.25;;;;;;;;;;4151126;34;20182;-61
2021/09/27 12:19:02;;;;;;;10.93;6.05;;;;;;;;;;4149864;34;20115;-61
2021/09/27 12:21:40;;;;;;;10.88;5.35;;;;;;;;;;4149910;34;20134;-61
2021/09/27 12:24:16;;;;;;;8.75;6.53;;;;;;;;;;4151260;34;20129;-62
2021/09/27 12:27:03;;;;;;;11.27;6.80;;;;;;;;;;4150880;34;20186;-62
2021/09/27 12:29:30;;;;;;;7.05;4.60;;;;;;;;;;4149547;34;20119;-68
2021/09/27 12:31:58;;;;;;;10.20;4.82;;;;;;;;;;4149500;34;20574;-68
2021/09/27 12:34:27;;;;;;;10.65;4.60;;;;;;;;;;4150660;34;20103;-69
2021/09/27 12:36:53;;;;;;;5.20;4.30;;;;;;;;;;4149501;34;20115;-69
2021/09/27 12:39:21;;;;;;;9.10;4.43;;;;;;;;;;4149786;34;20513;-68
2021/09/27 12:41:47;;;;;;;8.00;4.65;;;;;;;;;;4149321;34;20216;-69
2021/09/27 12:44:21;;;;;;;7.93;4.12;;;;;;;;;;4138390;34;20542;-68
2021/09/27 12:46:47;;;;;;;8.77;4.78;;;;;;;;;;4150744;34;20118;-69
2021/09/27 12:49:13;;;;;;;9.43;6.30;;;;;;;;;;4149758;34;20734;-69
2021/09/27 12:51:44;;;;;;;10.88;4.18;;;;;;;;;;4149327;34;20127;-62
2021/09/27 12:54:45;;;;;;;8.15;4.87;;;;;;;;;;4149676;34;20548;-65
2021/09/27 12:57:29;;;;;;;6.05;4.82;;;;;;;;;;4149432;34;20104;-62
2021/09/27 12:59:57;;;;;;;6.10;4.60;;;;;;;;;;4127296;34;20123;-62
2021/09/27 13:02:28;;;;;;;5.80;4.03;;;;;;;;;;4137964;34;20102;-63
2021/09/27 13:05:22;;;;;;;7.72;4.20;;;;;;;;;;4138852;34;20263;-62
2021/09/27 13:07:53;;;;;;;6.65;4.78;;;;;;;;;;4150621;34;20191;-62
2021/09/27 13:10:31;;;;;;;8.77;4.85;;;;;;;;;;4138118;34;20540;-63
2021/09/27 13:12:59;;;;;;;8.35;4.55;;;;;;;;;;4144184;34;20134;-63
2021/09/27 13:15:29;;;;;;;9.35;4.57;;;;;;;;;;4136974;34;20115;-62
2021/09/27 13:18:12;;;;;;;7.05;4.18;;;;;;;;;;4137347;34;20519;-63
2021/09/27 13:21:00;;;;;;;8.02;4.97;;;;;;;;;;4137085;34;20128;-63
2021/09/27 13:23:40;;;;;;;8.20;4.30;;;;;;;;;;4137101;34;20147;-63
2021/09/27 13:26:10;;;;;;;7.87;3.97;;;;;;;;;;4135833;34;20534;-63
2021/09/27 13:28:39;;;;;;;7.32;4.00;;;;;;;;;;4113408;34;20142;-63
2021/09/27 13:31:11;;;;;;;5.97;4.00;;;;;;;;;;4136921;34;20167;-63
2021/09/27 13:33:49;;;;;;;6.53;4.20;;;;;;;;;;4136964;34;20196;-63
2021/09/27 13:36:40;;;;;;;8.88;3.87;;;;;;;;;;4124528;34;20114;-62
2021/09/27 13:39:11;;;;;;;6.20;3.78;;;;;;;;;;4137134;34;20111;-69
2021/09/27 13:41:47;;;;;;;6.50;3.53;;;;;;;;;;4136821;34;20116;-71
2021/09/27 13:44:34;;;;;;;8.13;4.03;;;;;;;;;;4134708;34;20103;-70
2021/09/27 13:47:01;;;;;;;4.65;3.70;;;;;;;;;;4137115;34;20460;-69
2021/09/27 13:49:27;;;;;;;5.62;3.67;;;;;;;;;;4136902;34;20127;-69
2021/09/27 13:51:53;;;;;;;6.87;4.12;;;;;;;;;;4136500;34;20123;-70
2021/09/27 13:54:19;;;;;;;5.10;3.83;;;;;;;;;;4135695;34;20426;-69
2021/09/27 13:56:45;;;;;;;11.75;4.12;;;;;;;;;;4124205;34;20203;-70
2021/09/27 13:59:11;;;;;;;5.43;3.92;;;;;;;;;;4143159;34;20134;-71
2021/09/27 14:01:37;;;;;;;5.12;3.75;;;;;;;;;;4135248;34;20567;-70
2021/09/27 14:04:04;;;;;;;6.57;3.72;;;;;;;;;;4146622;34;20142;-70
2021/09/27 14:06:32;;;;;;;5.30;3.65;;;;;;;;;;4150371;34;20180;-70
2021/09/27 14:08:58;;;;;;;4.93;3.33;;;;;;;;;;4124674;34;20120;-69
2021/09/27 14:11:25;;;;;;;5.72;3.55;;;;;;;;;;4136440;34;20119;-67
2021/09/27 14:13:51;;;;;;;7.28;3.55;;;;;;;;;;4146481;34;20092;-68
2021/09/27 14:16:18;;;;;;;6.93;2.90;;;;;;;;;;4143294;34;20119;-67
2021/09/27 14:18:46;;;;;;;5.53;3.42;;;;;;;;;;4148620;34;20103;-67
2021/09/27 14:21:15;;;;;;;6.55;3.28;;;;;;;;;;4159781;34;20125;-66
2021/09/27 14:23:42;;;;;;;4.03;2.95;;;;;;;;;;4148912;34;20467;-62
2021/09/27 14:26:08;;;;;;;5.95;3.10;;;;;;;;;;4149343;34;20163;-65
2021/09/27 14:28:35;;;;;;;9.98;3.12;;;;;;;;;;4150135;34;20146;-63
2021/09/27 14:31:02;;;;;;;7.72;3.15;;;;;;;;;;4159724;34;20162;-63
2021/09/27 14:33:30;;;;;;;10.75;4.07;;;;;;;;;;4145315;34;20122;-65
2021/09/27 14:35:56;;;;;;;9.25;3.05;;;;;;;;;;4136876;34;20441;-66
2021/09/27 14:38:22;;;;;;;11.80;3.00;;;;;;;;;;4146762;34;20231;-66
2021/09/27 14:40:48;;;;;;;7.72;3.12;;;;;;;;;;4136564;34;20135;-67
2021/09/27 14:43:14;;;;;;;4.82;2.83;;;;;;;;;;4148163;34;20226;-72
2021/09/27 14:45:42;;;;;;;6.82;3.00;;;;;;;;;;4150228;34;20197;-69
2021/09/27 14:48:08;;;;;;;11.12;3.20;;;;;;;;;;4148698;34;20106;-67
2021/09/27 14:50:37;;;;;;;8.40;3.20;;;;;;;;;;4148338;34;20555;-66
2021/09/27 14:53:03;;;;;;;4.60;3.20;;;;;;;;;;4149592;34;20139;-67
2021/09/27 14:55:36;;;;;;;10.85;3.33;;;;;;;;;;4148094;34;20137;-65
2021/09/27 14:58:06;;;;;;;8.77;3.08;;;;;;;;;;4148171;34;20115;-65
2021/09/27 15:00:32;;;;;;;4.82;3.37;;;;;;;;;;4148134;34;20515;-67
2021/09/27 15:02:58;;;;;;;7.65;3.55;;;;;;;;;;4149552;34;20130;-66
2021/09/27 15:05:24;;;;;;;6.32;3.22;;;;;;;;;;4149815;34;20187;-63
2021/09/27 15:07:52;;;;;;;5.47;2.83;;;;;;;;;;4150351;34;20110;-65
2021/09/27 15:10:19;;;;;;;9.88;3.12;;;;;;;;;;4149724;34;20508;-66
2021/09/27 15:12:46;;;;;;;5.72;2.90;;;;;;;;;;4149469;34;20177;-65
2021/09/27 15:15:12;;;;;;;10.48;4.93;;;;;;;;;;4149513;34;20296;-65
2021/09/27 15:17:38;;;;;;;8.57;3.00;;;;;;;;;;4149433;34;20127;-65
2021/09/27 15:20:06;;;;;;;6.47;2.90;;;;;;;;;;4149691;34;20326;-65
2021/09/27 15:22:34;;;;;;;4.55;3.42;;;;;;;;;;4149286;34;20194;-65
2021/09/27 15:25:00;;;;;;;7.12;3.05;;;;;;;;;;4159313;34;20499;-64
2021/09/27 15:27:26;;;;;;;10.43;3.33;;;;;;;;;;4149787;34;20751;-64
2021/09/27 15:29:52;;;;;;;5.30;2.80;;;;;;;;;;4148311;34;20095;-65
2021/09/27 15:32:19;;;;;;;10.82;3.20;;;;;;;;;;4149392;34;20127;-64
2021/09/27 15:34:47;;;;;;;6.37;2.83;;;;;;;;;;4147963;34;20149;-69
2021/09/27 15:37:15;;;;;;;7.50;3.12;;;;;;;;;;4148046;34;20126;-69
2021/09/27 15:39:41;;;;;;;7.97;3.10;;;;;;;;;;4137087;34;20108;-68
2021/09/27 15:42:07;;;;;;;7.40;3.30;;;;;;;;;;4148085;34;20104;-68
2021/09/27 15:44:33;;;;;;;10.02;3.25;;;;;;;;;;4159145;34;20134;-69